Time;durP1;ratioP1;P1;durP2;ratioP2;P2;SDS_P1;SDS_P2;PMS_P1;PMS_P2;Temp;Humidity;BMP_temperature;BMP_pressure;BME280_temperature;BME280_humidity;BME280_pressure;Samples;Min_cycle;Max_cycle;Signal;HPM_P1;HPM_P2
2021/03/10 00:02:09;;;;;;;20.05;18.05;;;;;;;;;;5071021;28;20047;-63
2021/03/10 00:04:35;;;;;;;23.05;19.02;;;;;;;;;;5071370;28;20125;-63
2021/03/10 00:07:01;;;;;;;20.17;18.13;;;;;;;;;;5070783;28;20466;-63
2021/03/10 00:09:27;;;;;;;20.30;18.23;;;;;;;;;;5069387;28;20033;-62
2021/03/10 00:11:53;;;;;;;21.00;18.92;;;;;;;;;;5071364;28;20135;-63
2021/03/10 00:14:19;;;;;;;20.45;18.23;;;;;;;;;;5070777;28;20052;-63
2021/03/10 00:16:45;;;;;;;20.20;18.20;;;;;;;;;;5071079;28;20382;-63
2021/03/10 00:19:12;;;;;;;20.25;18.15;;;;;;;;;;5070598;28;20110;-63
2021/03/10 00:21:38;;;;;;;21.48;19.17;;;;;;;;;;5071245;28;20043;-63
2021/03/10 00:24:04;;;;;;;20.15;18.05;;;;;;;;;;5070266;28;20041;-63
2021/03/10 00:26:30;;;;;;;20.58;18.58;;;;;;;;;;5078984;28;20134;-63
2021/03/10 00:28:56;;;;;;;20.50;18.40;;;;;;;;;;5087124;28;20571;-63
2021/03/10 00:31:22;;;;;;;19.35;17.45;;;;;;;;;;5089829;28;20044;-63
2021/03/10 00:33:48;;;;;;;20.88;18.60;;;;;;;;;;5093040;28;20207;-63
2021/03/10 00:36:14;;;;;;;20.33;18.33;;;;;;;;;;5094859;28;20039;-63
2021/03/10 00:38:40;;;;;;;19.45;17.55;;;;;;;;;;5094574;28;20040;-63
2021/03/10 00:41:06;;;;;;;20.23;18.23;;;;;;;;;;5094698;28;20039;-63
2021/03/10 00:43:32;;;;;;;20.80;18.67;;;;;;;;;;5093226;28;20071;-63
2021/03/10 00:45:58;;;;;;;19.55;17.52;;;;;;;;;;5093224;28;20422;-62
2021/03/10 00:48:24;;;;;;;20.50;18.40;;;;;;;;;;5093088;28;20093;-63
2021/03/10 00:50:50;;;;;;;19.77;17.73;;;;;;;;;;5093887;28;20036;-63
2021/03/10 00:53:16;;;;;;;19.95;17.95;;;;;;;;;;5093828;28;20055;-63
2021/03/10 00:55:42;;;;;;;20.70;18.50;;;;;;;;;;5092608;28;20032;-63
2021/03/10 00:58:08;;;;;;;20.58;18.38;;;;;;;;;;5092493;28;20450;-63
2021/03/10 01:00:35;;;;;;;20.58;18.52;;;;;;;;;;5085062;28;20040;-63
2021/03/10 01:03:01;;;;;;;20.75;18.65;;;;;;;;;;5093009;28;20055;-63
2021/03/10 01:05:27;;;;;;;20.98;18.83;;;;;;;;;;5091867;28;20119;-63
2021/03/10 01:07:53;;;;;;;19.73;17.63;;;;;;;;;;5093583;28;20120;-62
2021/03/10 01:10:19;;;;;;;20.63;18.42;;;;;;;;;;5093503;28;20040;-63
2021/03/10 01:12:45;;;;;;;19.02;17.13;;;;;;;;;;5092452;28;20036;-63
2021/03/10 01:15:12;;;;;;;19.25;16.40;;;;;;;;;;5085179;28;20071;-63
2021/03/10 01:17:39;;;;;;;19.70;17.70;;;;;;;;;;5091337;28;20063;-63
2021/03/10 01:20:10;;;;;;;18.00;16.25;;;;;;;;;;5092372;28;20646;-63
2021/03/10 01:22:36;;;;;;;17.73;16.02;;;;;;;;;;5092093;28;20521;-63
2021/03/10 01:25:03;;;;;;;20.02;17.98;;;;;;;;;;5093747;28;20486;-62
2021/03/10 01:27:29;;;;;;;19.60;17.60;;;;;;;;;;5093136;28;20104;-63
2021/03/10 01:29:55;;;;;;;19.25;17.23;;;;;;;;;;5092781;28;20036;-63
2021/03/10 01:32:21;;;;;;;19.00;17.10;;;;;;;;;;5092517;28;20036;-63
2021/03/10 01:34:47;;;;;;;18.85;16.98;;;;;;;;;;5091009;28;20474;-62
2021/03/10 01:37:13;;;;;;;18.88;16.98;;;;;;;;;;5092486;28;20111;-63
2021/03/10 01:39:39;;;;;;;19.25;17.30;;;;;;;;;;5092225;28;20115;-63
2021/03/10 01:42:06;;;;;;;18.50;16.52;;;;;;;;;;5092748;28;20040;-63
2021/03/10 01:44:32;;;;;;;20.50;18.48;;;;;;;;;;5092032;28;20071;-63
2021/03/10 01:46:59;;;;;;;20.15;18.23;;;;;;;;;;5092479;28;20040;-63
2021/03/10 01:49:25;;;;;;;19.25;17.38;;;;;;;;;;5089889;28;20097;-63
2021/03/10 01:51:51;;;;;;;19.17;17.27;;;;;;;;;;5092264;28;20040;-63
2021/03/10 01:54:17;;;;;;;19.40;17.48;;;;;;;;;;5092025;28;20040;-63
2021/03/10 01:56:43;;;;;;;19.30;17.40;;;;;;;;;;5091332;28;20040;-63
2021/03/10 01:59:10;;;;;;;19.30;17.30;;;;;;;;;;5091018;28;20081;-63
2021/03/10 02:01:36;;;;;;;19.73;17.73;;;;;;;;;;5092961;28;20083;-63
2021/03/10 02:04:06;;;;;;;17.17;15.48;;;;;;;;;;5087726;28;20060;-63
2021/03/10 02:06:32;;;;;;;18.10;16.30;;;;;;;;;;5092032;28;20027;-63
2021/03/10 02:09:12;;;;;;;17.85;16.05;;;;;;;;;;5091762;28;20064;-63
2021/03/10 02:11:40;;;;;;;18.00;16.20;;;;;;;;;;5092371;28;20481;-63
2021/03/10 02:14:14;;;;;;;17.25;15.65;;;;;;;;;;5092179;28;20044;-63
2021/03/10 02:16:44;;;;;;;17.40;15.73;;;;;;;;;;5092743;28;20103;-63
2021/03/10 02:19:10;;;;;;;17.48;15.77;;;;;;;;;;5090510;28;20032;-63
2021/03/10 02:21:42;;;;;;;16.60;15.02;;;;;;;;;;5092075;28;20420;-63
2021/03/10 02:24:26;;;;;;;17.83;16.13;;;;;;;;;;5091906;28;20036;-63
2021/03/10 02:27:05;;;;;;;17.13;15.52;;;;;;;;;;5091055;28;20122;-63
2021/03/10 02:29:31;;;;;;;17.20;15.50;;;;;;;;;;5091928;28;20388;-63
2021/03/10 02:31:58;;;;;;;16.70;15.10;;;;;;;;;;5091929;28;20039;-63
2021/03/10 02:34:26;;;;;;;17.92;16.13;;;;;;;;;;5090283;28;20036;-63
2021/03/10 02:36:53;;;;;;;17.92;16.13;;;;;;;;;;5092527;28;20550;-63
2021/03/10 02:39:19;;;;;;;17.13;15.35;;;;;;;;;;5089316;28;20085;-63
2021/03/10 02:41:46;;;;;;;17.98;16.08;;;;;;;;;;5094935;22;21794;-62
2021/03/10 02:44:14;;;;;;;17.85;16.05;;;;;;;;;;5092009;28;20119;-62
2021/03/10 02:46:40;;;;;;;19.27;17.27;;;;;;;;;;5091969;28;20043;-62
2021/03/10 02:49:06;;;;;;;19.02;17.20;;;;;;;;;;5092052;28;20047;-62
2021/03/10 02:51:33;;;;;;;19.33;17.52;;;;;;;;;;5091840;28;20036;-62
2021/03/10 02:54:00;;;;;;;17.98;16.20;;;;;;;;;;5092207;28;20036;-62
2021/03/10 02:56:27;;;;;;;18.67;16.70;;;;;;;;;;5091305;28;20036;-61
2021/03/10 02:58:53;;;;;;;18.73;16.80;;;;;;;;;;5089677;28;20036;-62
2021/03/10 03:01:20;;;;;;;17.83;16.00;;;;;;;;;;5089144;28;20437;-61
2021/03/10 03:03:46;;;;;;;19.02;17.08;;;;;;;;;;5090163;28;20118;-62
2021/03/10 03:06:12;;;;;;;18.80;16.92;;;;;;;;;;5088443;28;20592;-62
2021/03/10 03:08:38;;;;;;;18.80;16.80;;;;;;;;;;5089570;28;20042;-62
2021/03/10 03:11:05;;;;;;;18.85;16.95;;;;;;;;;;5091125;28;20043;-62
2021/03/10 03:13:32;;;;;;;19.02;17.02;;;;;;;;;;5088724;28;20454;-61
2021/03/10 03:15:59;;;;;;;19.38;17.40;;;;;;;;;;5090000;28;20067;-62
2021/03/10 03:18:29;;;;;;;17.85;16.15;;;;;;;;;;5089213;28;20362;-62
2021/03/10 03:20:55;;;;;;;18.77;16.88;;;;;;;;;;5090168;28;20044;-62
2021/03/10 03:23:23;;;;;;;19.00;17.10;;;;;;;;;;5090591;28;20097;-62
2021/03/10 03:25:50;;;;;;;19.33;17.40;;;;;;;;;;5073396;28;20044;-62
2021/03/10 03:28:18;;;;;;;19.60;17.67;;;;;;;;;;5090438;28;20582;-62
2021/03/10 03:30:44;;;;;;;19.05;17.05;;;;;;;;;;5090273;28;20074;-62
2021/03/10 03:33:11;;;;;;;18.40;16.50;;;;;;;;;;5089446;28;20044;-62
2021/03/10 03:35:38;;;;;;;18.77;16.98;;;;;;;;;;5090101;28;20143;-62
2021/03/10 03:38:04;;;;;;;18.65;16.65;;;;;;;;;;5089645;28;20440;-62
2021/03/10 03:40:31;;;;;;;18.70;16.80;;;;;;;;;;5090595;28;20032;-62
2021/03/10 03:42:57;;;;;;;18.35;16.55;;;;;;;;;;5090072;28;20040;-62
2021/03/10 03:45:23;;;;;;;18.88;16.88;;;;;;;;;;5090619;28;20732;-62
2021/03/10 03:47:50;;;;;;;18.52;16.73;;;;;;;;;;5090069;28;20587;-62
2021/03/10 03:50:19;;;;;;;20.00;18.02;;;;;;;;;;5089492;28;20043;-62
2021/03/10 03:52:45;;;;;;;18.67;16.77;;;;;;;;;;5072300;28;20149;-62
2021/03/10 03:55:12;;;;;;;18.08;16.27;;;;;;;;;;5072045;28;20040;-62
2021/03/10 03:57:38;;;;;;;19.65;17.58;;;;;;;;;;5088098;28;20038;-62
2021/03/10 04:00:09;;;;;;;18.60;16.77;;;;;;;;;;5089508;28;20660;-62
2021/03/10 04:02:35;;;;;;;18.45;16.58;;;;;;;;;;5089826;28;20028;-62
2021/03/10 04:05:01;;;;;;;18.98;17.08;;;;;;;;;;5090734;28;20044;-62
2021/03/10 04:07:27;;;;;;;19.55;17.50;;;;;;;;;;5070124;28;20032;-61
2021/03/10 04:09:53;;;;;;;19.85;17.85;;;;;;;;;;5075780;28;20044;-62
2021/03/10 04:12:19;;;;;;;19.35;17.35;;;;;;;;;;5094428;28;20036;-62
2021/03/10 04:14:45;;;;;;;19.88;17.77;;;;;;;;;;5092746;28;20044;-62
2021/03/10 04:17:11;;;;;;;20.58;18.33;;;;;;;;;;5076446;28;20454;-62
2021/03/10 04:19:37;;;;;;;20.20;18.10;;;;;;;;;;5092237;28;20416;-62
2021/03/10 04:22:03;;;;;;;21.23;19.02;;;;;;;;;;5094372;28;20466;-62
2021/03/10 04:24:30;;;;;;;20.90;17.77;;;;;;;;;;5092796;28;20036;-62
2021/03/10 04:26:56;;;;;;;21.63;19.30;;;;;;;;;;5093940;28;20032;-62
2021/03/10 04:29:22;;;;;;;21.45;19.10;;;;;;;;;;5093200;28;20119;-62
2021/03/10 04:31:48;;;;;;;21.55;19.30;;;;;;;;;;5094302;28;20044;-62
2021/03/10 04:34:14;;;;;;;22.02;19.55;;;;;;;;;;5092025;28;20043;-62
2021/03/10 04:36:40;;;;;;;20.75;18.35;;;;;;;;;;5093654;28;20392;-62
2021/03/10 04:39:06;;;;;;;20.98;18.88;;;;;;;;;;5093509;28;20446;-62
2021/03/10 04:41:32;;;;;;;21.02;18.80;;;;;;;;;;5092964;28;20048;-62
2021/03/10 04:43:58;;;;;;;21.67;19.35;;;;;;;;;;5093709;28;20043;-62
2021/03/10 04:46:24;;;;;;;20.30;18.17;;;;;;;;;;5093742;28;20478;-62
2021/03/10 04:48:50;;;;;;;22.35;19.95;;;;;;;;;;5092018;28;20036;-62
2021/03/10 04:51:16;;;;;;;20.90;18.63;;;;;;;;;;5092696;28;20028;-62
2021/03/10 04:53:42;;;;;;;20.70;18.50;;;;;;;;;;5093216;28;20031;-62
2021/03/10 04:56:08;;;;;;;21.17;18.98;;;;;;;;;;5092116;28;20535;-62
2021/03/10 04:58:34;;;;;;;20.40;18.20;;;;;;;;;;5092793;28;20036;-62
2021/03/10 05:01:00;;;;;;;20.73;18.50;;;;;;;;;;5093699;28;20420;-62
2021/03/10 05:03:26;;;;;;;21.60;19.40;;;;;;;;;;5092170;28;20036;-62
2021/03/10 05:05:52;;;;;;;20.98;18.77;;;;;;;;;;5092390;28;20036;-62
2021/03/10 05:08:18;;;;;;;19.85;17.85;;;;;;;;;;5092581;28;20081;-62
2021/03/10 05:10:44;;;;;;;20.65;18.45;;;;;;;;;;5092281;28;20477;-61
2021/03/10 05:13:10;;;;;;;20.58;18.38;;;;;;;;;;5091168;28;20040;-61
2021/03/10 05:15:36;;;;;;;20.45;18.33;;;;;;;;;;5093002;28;20039;-62
2021/03/10 05:18:02;;;;;;;20.48;18.38;;;;;;;;;;5090171;28;20036;-61
2021/03/10 05:20:28;;;;;;;22.13;19.75;;;;;;;;;;5072145;28;20032;-62
2021/03/10 05:22:54;;;;;;;22.17;19.77;;;;;;;;;;5091076;28;20415;-62
2021/03/10 05:25:21;;;;;;;21.48;18.58;;;;;;;;;;5092538;28;20043;-62
2021/03/10 05:27:47;;;;;;;20.83;18.58;;;;;;;;;;5075110;28;20440;-62
2021/03/10 05:30:13;;;;;;;21.52;19.23;;;;;;;;;;5092737;28;20036;-62
2021/03/10 05:32:39;;;;;;;19.90;17.85;;;;;;;;;;5091218;28;20105;-62
2021/03/10 05:35:06;;;;;;;21.40;19.10;;;;;;;;;;5093016;28;20039;-61
2021/03/10 05:37:32;;;;;;;21.58;18.65;;;;;;;;;;5091406;28;20024;-62
2021/03/10 05:39:58;;;;;;;21.00;18.77;;;;;;;;;;5092630;28;20094;-62
2021/03/10 05:42:24;;;;;;;19.98;17.88;;;;;;;;;;5092678;28;20501;-62
2021/03/10 05:44:51;;;;;;;21.25;18.95;;;;;;;;;;5091760;28;20447;-62
2021/03/10 05:47:18;;;;;;;20.50;18.30;;;;;;;;;;5091952;28;20040;-62
2021/03/10 05:49:45;;;;;;;20.70;18.38;;;;;;;;;;5091193;28;20036;-61
2021/03/10 05:52:12;;;;;;;21.63;19.33;;;;;;;;;;5093001;28;20036;-62
2021/03/10 05:54:38;;;;;;;21.85;19.50;;;;;;;;;;5092125;28;20040;-62
2021/03/10 05:57:05;;;;;;;22.00;19.15;;;;;;;;;;5093168;28;20090;-62
2021/03/10 05:59:31;;;;;;;21.35;18.75;;;;;;;;;;5090782;28;20066;-62
2021/03/10 06:01:57;;;;;;;20.90;18.67;;;;;;;;;;5090522;28;20543;-62
2021/03/10 06:04:24;;;;;;;21.67;18.75;;;;;;;;;;5092021;28;20044;-61
2021/03/10 06:06:51;;;;;;;20.48;18.20;;;;;;;;;;5092557;28;20500;-62
2021/03/10 06:09:20;;;;;;;22.38;19.90;;;;;;;;;;5092512;28;20135;-62
2021/03/10 06:11:53;;;;;;;21.80;19.23;;;;;;;;;;5091625;28;20048;-62
2021/03/10 06:14:19;;;;;;;22.05;19.75;;;;;;;;;;5091245;28;20469;-62
2021/03/10 06:16:46;;;;;;;21.10;18.48;;;;;;;;;;5090121;28;20062;-62
2021/03/10 06:19:12;;;;;;;21.13;18.10;;;;;;;;;;5090723;28;20036;-62
2021/03/10 06:21:48;;;;;;;21.48;19.25;;;;;;;;;;5090365;28;20060;-61
2021/03/10 06:24:14;;;;;;;20.45;18.20;;;;;;;;;;5090771;28;20448;-61
2021/03/10 06:26:40;;;;;;;22.90;18.05;;;;;;;;;;5091136;28;20044;-62
2021/03/10 06:29:16;;;;;;;21.50;19.27;;;;;;;;;;5073709;28;20542;-62
2021/03/10 06:31:42;;;;;;;21.25;18.17;;;;;;;;;;5090835;28;20040;-62
2021/03/10 06:34:09;;;;;;;21.45;19.25;;;;;;;;;;5090884;28;20040;-62
2021/03/10 06:36:36;;;;;;;20.63;18.52;;;;;;;;;;5089944;28;20077;-62
2021/03/10 06:39:05;;;;;;;20.60;18.45;;;;;;;;;;5091203;28;20036;-62
2021/03/10 06:41:38;;;;;;;19.55;17.45;;;;;;;;;;5091597;28;20040;-62
2021/03/10 06:44:15;;;;;;;22.13;19.83;;;;;;;;;;5091269;28;20044;-62
2021/03/10 06:46:55;;;;;;;20.52;18.33;;;;;;;;;;5091675;28;20093;-61
2021/03/10 06:49:21;;;;;;;20.70;18.60;;;;;;;;;;5092157;28;20043;-62
2021/03/10 06:51:51;;;;;;;21.33;19.10;;;;;;;;;;5089759;28;20074;-62
2021/03/10 06:54:17;;;;;;;20.15;18.05;;;;;;;;;;5091591;28;20097;-62
2021/03/10 06:56:43;;;;;;;22.25;19.40;;;;;;;;;;5090691;28;20036;-62
2021/03/10 06:59:09;;;;;;;21.80;19.08;;;;;;;;;;5090874;28;20035;-62
2021/03/10 07:01:39;;;;;;;22.05;19.65;;;;;;;;;;5082933;28;20108;-62
2021/03/10 07:04:06;;;;;;;22.45;20.25;;;;;;;;;;5084345;28;20473;-62
2021/03/10 07:06:33;;;;;;;21.75;19.52;;;;;;;;;;5091260;28;20036;-62
2021/03/10 07:08:59;;;;;;;20.75;18.55;;;;;;;;;;5073122;28;20028;-62
2021/03/10 07:11:25;;;;;;;22.05;19.15;;;;;;;;;;5090417;28;20128;-62
2021/03/10 07:13:51;;;;;;;20.70;18.30;;;;;;;;;;5090372;28;20122;-61
2021/03/10 07:16:18;;;;;;;21.17;18.88;;;;;;;;;;5089848;28;20390;-62
2021/03/10 07:18:46;;;;;;;21.75;19.02;;;;;;;;;;5088582;28;20458;-62
2021/03/10 07:21:14;;;;;;;21.38;19.17;;;;;;;;;;5071739;28;20111;-62
2021/03/10 07:23:46;;;;;;;20.20;17.65;;;;;;;;;;5071805;28;20047;-62
2021/03/10 07:26:12;;;;;;;21.38;19.17;;;;;;;;;;5087134;28;20613;-62
2021/03/10 07:28:40;;;;;;;21.13;18.60;;;;;;;;;;5089670;28;20085;-61
2021/03/10 07:31:06;;;;;;;22.77;19.98;;;;;;;;;;5090705;28;20036;-62
2021/03/10 07:33:32;;;;;;;21.15;18.38;;;;;;;;;;5088017;28;20047;-62
2021/03/10 07:36:02;;;;;;;20.58;18.48;;;;;;;;;;5090324;28;20036;-62
2021/03/10 07:38:34;;;;;;;19.38;17.15;;;;;;;;;;5089689;28;20478;-62
2021/03/10 07:41:01;;;;;;;19.67;17.58;;;;;;;;;;5090387;28;20051;-62
2021/03/10 07:43:41;;;;;;;22.13;19.75;;;;;;;;;;5093048;28;20101;-62
2021/03/10 07:46:20;;;;;;;22.50;18.48;;;;;;;;;;5090383;28;20124;-61
2021/03/10 07:48:46;;;;;;;20.65;18.50;;;;;;;;;;5072773;28;20054;-61
2021/03/10 07:51:26;;;;;;;21.30;18.50;;;;;;;;;;5092188;28;20036;-61
2021/03/10 07:53:52;;;;;;;18.95;16.60;;;;;;;;;;5088425;28;20040;-62
2021/03/10 07:56:25;;;;;;;20.95;18.73;;;;;;;;;;5091584;28;20059;-62
2021/03/10 07:58:51;;;;;;;19.17;16.02;;;;;;;;;;5057896;28;20037;-62
2021/03/10 08:01:17;;;;;;;19.52;17.45;;;;;;;;;;5094825;28;20043;-62
2021/03/10 08:03:43;;;;;;;20.23;18.08;;;;;;;;;;5095152;28;20039;-61
2021/03/10 08:06:10;;;;;;;19.70;16.98;;;;;;;;;;5095003;28;20115;-62
2021/03/10 08:08:36;;;;;;;18.40;16.00;;;;;;;;;;5095034;28;20040;-62
2021/03/10 08:11:06;;;;;;;20.00;17.27;;;;;;;;;;5094135;28;20051;-61
2021/03/10 08:13:32;;;;;;;19.45;16.55;;;;;;;;;;5094447;28;20072;-62
2021/03/10 08:16:02;;;;;;;18.00;16.20;;;;;;;;;;5094421;28;20040;-62
2021/03/10 08:18:28;;;;;;;19.42;16.30;;;;;;;;;;5094939;28;20051;-62
2021/03/10 08:20:55;;;;;;;18.35;16.35;;;;;;;;;;5094624;28;20044;-62
2021/03/10 08:23:21;;;;;;;17.55;14.68;;;;;;;;;;5094387;28;20044;-62
2021/03/10 08:25:52;;;;;;;18.30;15.57;;;;;;;;;;5094431;28;20052;-62
2021/03/10 08:28:18;;;;;;;18.35;16.15;;;;;;;;;;5094793;28;20063;-62
2021/03/10 08:30:44;;;;;;;18.13;16.23;;;;;;;;;;5094452;28;20101;-62
2021/03/10 08:33:12;;;;;;;18.17;16.27;;;;;;;;;;5093796;28;20044;-62
2021/03/10 08:35:38;;;;;;;17.33;15.23;;;;;;;;;;5094603;28;20040;-62
2021/03/10 08:38:05;;;;;;;19.90;16.67;;;;;;;;;;5093888;28;20039;-62
2021/03/10 08:40:32;;;;;;;18.60;16.60;;;;;;;;;;5094263;28;20541;-62
2021/03/10 08:43:02;;;;;;;18.20;15.75;;;;;;;;;;5094471;28;20600;-62
2021/03/10 08:45:30;;;;;;;17.55;15.70;;;;;;;;;;5094204;28;20153;-62
2021/03/10 08:47:59;;;;;;;17.02;15.25;;;;;;;;;;5094088;28;20140;-62
2021/03/10 08:50:27;;;;;;;17.27;15.10;;;;;;;;;;5091287;28;20071;-62
2021/03/10 08:52:53;;;;;;;18.95;15.80;;;;;;;;;;5094077;28;20047;-62
2021/03/10 08:55:23;;;;;;;18.85;15.98;;;;;;;;;;5093724;28;20036;-63
2021/03/10 08:57:50;;;;;;;16.48;14.77;;;;;;;;;;5093848;28;20123;-62
2021/03/10 09:00:17;;;;;;;16.15;14.45;;;;;;;;;;5093704;28;20040;-63
2021/03/10 09:02:43;;;;;;;16.60;14.80;;;;;;;;;;5092909;28;20519;-62
2021/03/10 09:05:11;;;;;;;17.10;14.82;;;;;;;;;;5091125;28;20040;-62
2021/03/10 09:07:37;;;;;;;17.33;15.30;;;;;;;;;;5091763;28;20032;-62
2021/03/10 09:10:15;;;;;;;18.13;15.25;;;;;;;;;;5093293;28;20063;-62
2021/03/10 09:12:45;;;;;;;17.90;15.65;;;;;;;;;;5093711;28;20033;-62
2021/03/10 09:15:15;;;;;;;19.50;15.70;;;;;;;;;;5093199;28;20119;-62
2021/03/10 09:17:41;;;;;;;20.02;16.88;;;;;;;;;;5093473;28;20107;-62
2021/03/10 09:20:12;;;;;;;19.05;17.02;;;;;;;;;;5093481;28;20032;-62
2021/03/10 09:22:45;;;;;;;19.15;15.45;;;;;;;;;;5093759;28;20377;-62
2021/03/10 09:25:12;;;;;;;20.08;17.65;;;;;;;;;;5093220;28;20036;-62
2021/03/10 09:27:38;;;;;;;18.95;16.80;;;;;;;;;;5093142;28;20040;-62
2021/03/10 09:30:13;;;;;;;19.75;16.23;;;;;;;;;;5093100;28;20032;-62
2021/03/10 09:32:40;;;;;;;19.45;16.80;;;;;;;;;;5093390;28;20059;-62
2021/03/10 09:35:11;;;;;;;20.88;17.65;;;;;;;;;;5093072;28;20028;-62
2021/03/10 09:37:42;;;;;;;21.90;19.52;;;;;;;;;;5093274;28;20031;-62
2021/03/10 09:40:09;;;;;;;21.75;18.33;;;;;;;;;;5092556;28;20054;-62
2021/03/10 09:42:35;;;;;;;23.50;19.15;;;;;;;;;;5092461;28;20075;-62
2021/03/10 09:45:01;;;;;;;26.98;22.33;;;;;;;;;;5092531;28;20040;-63
2021/03/10 09:47:27;;;;;;;23.48;19.15;;;;;;;;;;5091986;28;20038;-62
2021/03/10 09:49:54;;;;;;;25.85;20.83;;;;;;;;;;5091699;28;20039;-63
2021/03/10 09:52:34;;;;;;;25.88;21.77;;;;;;;;;;5083823;28;20036;-62
2021/03/10 09:55:00;;;;;;;28.02;22.27;;;;;;;;;;5092430;28;20074;-62
2021/03/10 09:57:28;;;;;;;26.42;21.73;;;;;;;;;;5092885;28;20040;-62
2021/03/10 09:59:54;;;;;;;24.17;20.58;;;;;;;;;;5092039;28;20067;-62
2021/03/10 10:02:21;;;;;;;24.85;21.30;;;;;;;;;;5092236;28;20518;-62
2021/03/10 10:04:57;;;;;;;26.77;22.23;;;;;;;;;;5091598;28;20044;-63
2021/03/10 10:07:23;;;;;;;24.45;21.77;;;;;;;;;;5053838;28;20050;-62
2021/03/10 10:09:49;;;;;;;24.50;19.80;;;;;;;;;;5088240;28;20036;-62
2021/03/10 10:12:15;;;;;;;25.90;21.50;;;;;;;;;;5092895;28;20043;-62
2021/03/10 10:14:41;;;;;;;24.67;21.90;;;;;;;;;;5092640;28;20062;-62
2021/03/10 10:17:07;;;;;;;24.40;21.10;;;;;;;;;;5092475;28;20548;-62
2021/03/10 10:19:33;;;;;;;28.10;22.25;;;;;;;;;;5092254;28;20029;-61
2021/03/10 10:21:59;;;;;;;25.10;22.25;;;;;;;;;;5074545;28;20036;-62
2021/03/10 10:24:26;;;;;;;27.27;22.67;;;;;;;;;;5092074;28;20479;-62
2021/03/10 10:26:52;;;;;;;25.33;21.50;;;;;;;;;;5092394;28;20489;-61
2021/03/10 10:29:18;;;;;;;28.20;25.20;;;;;;;;;;5091966;28;20405;-62
2021/03/10 10:31:44;;;;;;;27.83;23.23;;;;;;;;;;5092623;28;20039;-62
2021/03/10 10:34:10;;;;;;;33.60;25.83;;;;;;;;;;5092338;28;20048;-62
2021/03/10 10:36:36;;;;;;;26.88;23.13;;;;;;;;;;5091861;28;20036;-62
2021/03/10 10:39:03;;;;;;;29.77;23.98;;;;;;;;;;5092116;28;20032;-62
2021/03/10 10:41:29;;;;;;;26.73;23.70;;;;;;;;;;5091668;28;20157;-62
2021/03/10 10:43:55;;;;;;;27.13;24.17;;;;;;;;;;5073867;28;20490;-62
2021/03/10 10:46:21;;;;;;;29.55;26.08;;;;;;;;;;5091359;28;20198;-62
2021/03/10 10:48:47;;;;;;;29.40;24.33;;;;;;;;;;5091866;28;20032;-62
2021/03/10 10:51:13;;;;;;;22.98;20.00;;;;;;;;;;5091973;28;20478;-62
2021/03/10 10:53:39;;;;;;;28.48;25.05;;;;;;;;;;5091467;28;20060;-62
2021/03/10 10:56:05;;;;;;;29.77;26.17;;;;;;;;;;5073084;28;20093;-63
2021/03/10 10:58:31;;;;;;;31.00;25.60;;;;;;;;;;5071621;28;20036;-62
2021/03/10 11:00:57;;;;;;;29.95;25.38;;;;;;;;;;5078223;28;20039;-61
2021/03/10 11:03:23;;;;;;;31.73;27.23;;;;;;;;;;5091974;28;20512;-62
2021/03/10 11:05:50;;;;;;;30.88;25.10;;;;;;;;;;5091364;28;20071;-61
2021/03/10 11:08:16;;;;;;;29.00;24.95;;;;;;;;;;5073683;28;20032;-62
2021/03/10 11:10:42;;;;;;;30.70;25.85;;;;;;;;;;5091487;28;20462;-62
2021/03/10 11:13:08;;;;;;;28.50;24.45;;;;;;;;;;5073737;28;20401;-62
2021/03/10 11:15:34;;;;;;;35.15;26.95;;;;;;;;;;5091547;28;20036;-61
2021/03/10 11:18:00;;;;;;;29.38;25.15;;;;;;;;;;5090817;28;20036;-62
2021/03/10 11:20:26;;;;;;;27.30;24.30;;;;;;;;;;5087967;28;20047;-61
2021/03/10 11:22:52;;;;;;;27.17;23.42;;;;;;;;;;5084150;28;20036;-62
2021/03/10 11:25:18;;;;;;;27.38;24.27;;;;;;;;;;5090512;28;20040;-62
2021/03/10 11:27:44;;;;;;;28.88;23.63;;;;;;;;;;5091350;28;20424;-62
2021/03/10 11:30:11;;;;;;;28.60;23.73;;;;;;;;;;5091515;28;20450;-62
2021/03/10 11:32:37;;;;;;;28.40;24.63;;;;;;;;;;5090689;28;20178;-62
2021/03/10 11:35:07;;;;;;;29.50;25.27;;;;;;;;;;5090607;28;20109;-62
2021/03/10 11:37:34;;;;;;;28.40;23.98;;;;;;;;;;5053874;28;20040;-64
2021/03/10 11:40:00;;;;;;;29.42;24.80;;;;;;;;;;5089242;28;20028;-64
2021/03/10 11:42:26;;;;;;;28.15;24.00;;;;;;;;;;5088172;28;20109;-64
2021/03/10 11:44:52;;;;;;;24.25;21.65;;;;;;;;;;5091187;28;20047;-63
2021/03/10 11:47:18;;;;;;;29.33;23.17;;;;;;;;;;5091404;28;20048;-63
2021/03/10 11:49:44;;;;;;;25.48;22.70;;;;;;;;;;5058234;28;20044;-63
2021/03/10 11:52:10;;;;;;;25.95;22.02;;;;;;;;;;5071152;28;20111;-63
2021/03/10 11:54:36;;;;;;;27.05;23.75;;;;;;;;;;5061110;28;20046;-63
2021/03/10 11:57:02;;;;;;;28.15;23.25;;;;;;;;;;5091703;28;20091;-63
2021/03/10 11:59:28;;;;;;;26.23;21.80;;;;;;;;;;5091550;28;20040;-63
2021/03/10 12:01:54;;;;;;;25.52;21.95;;;;;;;;;;5073409;28;20040;-63
2021/03/10 12:04:20;;;;;;;28.88;23.08;;;;;;;;;;5091209;28;20042;-63
2021/03/10 12:06:46;;;;;;;28.63;24.38;;;;;;;;;;5085882;28;20040;-63
2021/03/10 12:09:12;;;;;;;26.85;22.58;;;;;;;;;;5072491;28;20044;-62
2021/03/10 12:11:38;;;;;;;28.67;24.55;;;;;;;;;;5084091;28;20048;-63
2021/03/10 12:14:05;;;;;;;25.02;22.10;;;;;;;;;;5088866;28;20386;-63
2021/03/10 12:16:31;;;;;;;25.65;22.27;;;;;;;;;;5090000;28;20052;-64
2021/03/10 12:18:57;;;;;;;27.45;23.48;;;;;;;;;;5090567;28;20074;-64
2021/03/10 12:21:23;;;;;;;26.85;22.85;;;;;;;;;;5089608;28;20036;-64
2021/03/10 12:23:49;;;;;;;27.05;22.90;;;;;;;;;;5071427;28;20066;-63
2021/03/10 12:26:15;;;;;;;25.48;21.55;;;;;;;;;;5088548;28;20043;-64
2021/03/10 12:28:41;;;;;;;25.98;22.08;;;;;;;;;;5090198;28;20044;-64
2021/03/10 12:31:07;;;;;;;25.98;21.60;;;;;;;;;;5094703;28;20024;-64
2021/03/10 12:33:33;;;;;;;25.90;23.10;;;;;;;;;;5093241;28;20069;-63
2021/03/10 12:36:00;;;;;;;27.45;22.50;;;;;;;;;;5093875;28;20040;-63
2021/03/10 12:38:26;;;;;;;29.40;23.85;;;;;;;;;;5092216;28;20451;-64
2021/03/10 12:40:53;;;;;;;27.75;23.95;;;;;;;;;;5093651;28;20532;-64
2021/03/10 12:43:20;;;;;;;26.98;22.55;;;;;;;;;;5092007;28;20042;-63
2021/03/10 12:45:46;;;;;;;26.65;23.45;;;;;;;;;;5070805;28;20072;-63
2021/03/10 12:48:12;;;;;;;28.38;24.50;;;;;;;;;;5090380;28;20433;-63
2021/03/10 12:50:39;;;;;;;24.42;21.15;;;;;;;;;;5093992;28;20771;-64
2021/03/10 12:53:06;;;;;;;28.08;23.98;;;;;;;;;;5092896;28;20048;-63
2021/03/10 12:55:32;;;;;;;26.73;23.05;;;;;;;;;;5059915;28;20036;-64
2021/03/10 12:57:58;;;;;;;27.77;23.27;;;;;;;;;;5075318;28;20043;-64
2021/03/10 13:00:24;;;;;;;27.75;24.15;;;;;;;;;;5086966;28;20032;-63
2021/03/10 13:02:50;;;;;;;25.85;21.92;;;;;;;;;;5091523;28;20493;-64
2021/03/10 13:05:16;;;;;;;29.33;22.85;;;;;;;;;;5092491;28;20429;-64
2021/03/10 13:07:42;;;;;;;25.88;22.05;;;;;;;;;;5090096;28;20047;-64
2021/03/10 13:10:09;;;;;;;25.10;22.17;;;;;;;;;;5091039;28;20032;-63
2021/03/10 13:12:36;;;;;;;25.48;22.17;;;;;;;;;;5091153;28;20032;-64
2021/03/10 13:15:03;;;;;;;28.85;22.75;;;;;;;;;;5091142;28;20070;-62
2021/03/10 13:17:29;;;;;;;26.88;22.58;;;;;;;;;;5089006;28;20036;-63
2021/03/10 13:19:55;;;;;;;27.67;23.25;;;;;;;;;;5091186;28;20033;-62
2021/03/10 13:22:21;;;;;;;25.98;23.17;;;;;;;;;;5089804;28;20046;-63
2021/03/10 13:24:47;;;;;;;27.80;23.25;;;;;;;;;;5089125;28;20048;-63
2021/03/10 13:27:13;;;;;;;27.15;21.40;;;;;;;;;;5093179;28;20103;-63
2021/03/10 13:29:39;;;;;;;26.25;22.52;;;;;;;;;;5093562;28;20089;-62
2021/03/10 13:32:05;;;;;;;26.95;22.58;;;;;;;;;;5074851;28;20043;-62
2021/03/10 13:34:31;;;;;;;28.63;22.48;;;;;;;;;;5093348;28;20489;-63
2021/03/10 13:36:58;;;;;;;26.10;23.20;;;;;;;;;;5093148;28;20044;-62
2021/03/10 13:39:24;;;;;;;25.65;21.52;;;;;;;;;;5093371;28;20044;-63
2021/03/10 13:41:50;;;;;;;27.48;21.85;;;;;;;;;;5091670;28;20127;-62
2021/03/10 13:44:16;;;;;;;23.65;19.40;;;;;;;;;;5093537;28;20075;-62
2021/03/10 13:46:42;;;;;;;26.92;21.52;;;;;;;;;;5092585;28;20063;-62
2021/03/10 13:49:08;;;;;;;27.85;23.52;;;;;;;;;;5075228;28;20122;-62
2021/03/10 13:51:34;;;;;;;25.90;21.92;;;;;;;;;;5092570;28;20093;-62
2021/03/10 13:54:00;;;;;;;28.55;23.15;;;;;;;;;;5092402;28;20039;-62
2021/03/10 13:56:26;;;;;;;26.65;21.95;;;;;;;;;;5091588;28;20085;-63
2021/03/10 13:58:52;;;;;;;27.42;22.73;;;;;;;;;;5093014;28;20036;-62
2021/03/10 14:01:18;;;;;;;25.83;22.15;;;;;;;;;;5092212;28;20481;-62
2021/03/10 14:03:45;;;;;;;25.90;21.38;;;;;;;;;;5092922;28;20056;-63
2021/03/10 14:06:11;;;;;;;29.48;24.05;;;;;;;;;;5092881;28;20115;-62
2021/03/10 14:08:38;;;;;;;26.75;23.88;;;;;;;;;;5092088;28;20085;-63
2021/03/10 14:11:05;;;;;;;27.30;23.98;;;;;;;;;;5092203;28;20032;-62
2021/03/10 14:13:31;;;;;;;29.10;21.85;;;;;;;;;;5091470;28;20469;-63
2021/03/10 14:15:57;;;;;;;28.48;24.27;;;;;;;;;;5093020;28;20036;-62